sensor_id;sensor_type;location;lat;lon;timestamp;pressure;altitude;pressure_sealevel;temperature;humidity
32638;BME280;19045;52.268;10.506;2023-05-11T00:00:23;100440.41;;;13.10;100.00
32638;BME280;19045;52.268;10.506;2023-05-11T00:02:50;100434.19;;;13.09;100.00
32638;BME280;19045;52.268;10.506;2023-05-11T00:05:16;100440.41;;;13.10;100.00
32638;BME280;19045;52.268;10.506;2023-05-11T00:07:43;100429.06;;;13.13;100.00
32638;BME280;19045;52.268;10.506;2023-05-11T00:10:11;100433.13;;;13.15;100.00
32638;BME280;19045;52.268;10.506;2023-05-11T00:12:38;100438.78;;;13.14;100.00
32638;BME280;19045;52.268;10.506;2023-05-11T00:15:05;100433.13;;;13.15;100.00
32638;BME280;19045;52.268;10.506;2023-05-11T00:17:32;100444.44;;;13.17;100.00
32638;BME280;19045;52.268;10.506;2023-05-11T00:19:59;100442.81;;;13.21;100.00
32638;BME280;19045;52.268;10.506;2023-05-11T00:22:25;100437.97;;;13.18;100.00
32638;BME280;19045;52.268;10.506;2023-05-11T00:24:52;100433.88;;;13.26;100.00
32638;BME280;19045;52.268;10.506;2023-05-11T00:27:20;100434.16;;;13.24;100.00
32638;BME280;19045;52.268;10.506;2023-05-11T00:29:46;100439.81;;;13.23;100.00
32638;BME280;19045;52.268;10.506;2023-05-11T00:32:13;100436.59;;;13.21;100.00
32638;BME280;19045;52.268;10.506;2023-05-11T00:34:40;100429.84;;;13.23;100.00
32638;BME280;19045;52.268;10.506;2023-05-11T00:37:07;100432.00;;;13.26;100.00
32638;BME280;19045;52.268;10.506;2023-05-11T00:39:34;100435.22;;;13.33;100.00
32638;BME280;19045;52.268;10.506;2023-05-11T00:42:04;100433.06;;;13.35;100.00
32638;BME280;19045;52.268;10.506;2023-05-11T00:44:32;100437.09;;;13.33;100.00
32638;BME280;19045;52.268;10.506;2023-05-11T00:46:59;100439.53;;;13.29;100.00
32638;BME280;19045;52.268;10.506;2023-05-11T00:49:26;100436.63;;;13.11;100.00
32638;BME280;19045;52.268;10.506;2023-05-11T00:51:53;100432.56;;;13.03;100.00
32638;BME280;19045;52.268;10.506;2023-05-11T00:54:20;100434.72;;;13.01;100.00
32638;BME280;19045;52.268;10.506;2023-05-11T00:56:46;100429.31;;;13.06;100.00
32638;BME280;19045;52.268;10.506;2023-05-11T00:59:13;100437.44;;;13.01;100.00
32638;BME280;19045;52.268;10.506;2023-05-11T01:01:41;100434.22;;;12.89;100.00
32638;BME280;19045;52.268;10.506;2023-05-11T01:04:08;100436.38;;;12.82;100.00
32638;BME280;19045;52.268;10.506;2023-05-11T01:06:41;100432.59;;;12.78;100.00
32638;BME280;19045;52.268;10.506;2023-05-11T01:09:15;100435.84;;;12.75;100.00
32638;BME280;19045;52.268;10.506;2023-05-11T01:11:48;100434.22;;;12.84;100.00
32638;BME280;19045;52.268;10.506;2023-05-11T01:14:22;100433.69;;;12.82;100.00
32638;BME280;19045;52.268;10.506;2023-05-11T01:16:56;100432.09;;;12.76;100.00
32638;BME280;19045;52.268;10.506;2023-05-11T01:19:38;100434.25;;;12.69;100.00
32638;BME280;19045;52.268;10.506;2023-05-11T01:22:12;100432.34;;;12.74;100.00
32638;BME280;19045;52.268;10.506;2023-05-11T01:24:53;100431.53;;;12.69;100.00
32638;BME280;19045;52.268;10.506;2023-05-11T01:27:42;100432.34;;;12.64;100.00
32638;BME280;19045;52.268;10.506;2023-05-11T01:30:30;100439.91;;;12.62;100.00
32638;BME280;19045;52.268;10.506;2023-05-11T01:33:04;100438.53;;;12.60;100.00
32638;BME280;19045;52.268;10.506;2023-05-11T01:35:34;100438.53;;;12.55;100.00
32638;BME280;19045;52.268;10.506;2023-05-11T01:38:05;100437.47;;;12.61;100.00
32638;BME280;19045;52.268;10.506;2023-05-11T01:40:34;100439.34;;;12.65;100.00
32638;BME280;19045;52.268;10.506;2023-05-11T01:43:07;100438.00;;;12.68;100.00
32638;BME280;19045;52.268;10.506;2023-05-11T01:45:40;100438.81;;;12.68;100.00
32638;BME280;19045;52.268;10.506;2023-05-11T01:48:12;100436.09;;;12.53;100.00
32638;BME280;19045;52.268;10.506;2023-05-11T01:50:40;100434.25;;;12.59;100.00
32638;BME280;19045;52.268;10.506;2023-05-11T01:53:08;100442.03;;;12.50;100.00
32638;BME280;19045;52.268;10.506;2023-05-11T01:55:36;100443.38;;;12.48;100.00
32638;BME280;19045;52.268;10.506;2023-05-11T01:58:05;100446.09;;;12.58;100.00
32638;BME280;19045;52.268;10.506;2023-05-11T02:00:36;100439.91;;;12.62;100.00
32638;BME280;19045;52.268;10.506;2023-05-11T02:03:05;100442.31;;;12.54;100.00
32638;BME280;19045;52.268;10.506;2023-05-11T02:05:33;100444.72;;;12.50;100.00
32638;BME280;19045;52.268;10.506;2023-05-11T02:08:01;100447.97;;;12.57;100.00
32638;BME280;19045;52.268;10.506;2023-05-11T02:10:31;100451.47;;;12.58;100.00
32638;BME280;19045;52.268;10.506;2023-05-11T02:12:59;100448.25;;;12.56;100.00
32638;BME280;19045;52.268;10.506;2023-05-11T02:15:27;100449.59;;;12.48;100.00
32638;BME280;19045;52.268;10.506;2023-05-11T02:17:56;100451.75;;;12.46;100.00
32638;BME280;19045;52.268;10.506;2023-05-11T02:20:24;100454.16;;;12.48;100.00
32638;BME280;19045;52.268;10.506;2023-05-11T02:22:52;100449.31;;;12.55;100.00
32638;BME280;19045;52.268;10.506;2023-05-11T02:25:19;100454.97;;;12.58;100.00
32638;BME280;19045;52.268;10.506;2023-05-11T02:27:46;100454.97;;;12.58;100.00
32638;BME280;19045;52.268;10.506;2023-05-11T02:30:13;100449.06;;;12.61;100.00
32638;BME280;19045;52.268;10.506;2023-05-11T02:32:46;100449.06;;;12.71;100.00
32638;BME280;19045;52.268;10.506;2023-05-11T02:35:20;100452.00;;;12.70;100.00
32638;BME280;19045;52.268;10.506;2023-05-11T02:37:48;100455.25;;;12.72;100.00
32638;BME280;19045;52.268;10.506;2023-05-11T02:40:17;100449.31;;;12.65;100.00
32638;BME280;19045;52.268;10.506;2023-05-11T02:42:48;100456.06;;;12.62;100.00
32638;BME280;19045;52.268;10.506;2023-05-11T02:45:18;100461.72;;;12.61;100.00
32638;BME280;19045;52.268;10.506;2023-05-11T02:47:53;100451.47;;;12.63;100.00
32638;BME280;19045;52.268;10.506;2023-05-11T02:50:23;100456.34;;;12.56;100.00
32638;BME280;19045;52.268;10.506;2023-05-11T02:52:54;100460.63;;;12.57;100.00
32638;BME280;19045;52.268;10.506;2023-05-11T02:55:22;100457.41;;;12.55;100.00
32638;BME280;19045;52.268;10.506;2023-05-11T02:57:50;100453.34;;;12.57;100.00
32638;BME280;19045;52.268;10.506;2023-05-11T03:00:16;100456.31;;;12.51;100.00
32638;BME280;19045;52.268;10.506;2023-05-11T03:02:43;100464.13;;;12.47;100.00
32638;BME280;19045;52.268;10.506;2023-05-11T03:05:10;100457.94;;;12.47;100.00
32638;BME280;19045;52.268;10.506;2023-05-11T03:07:38;100458.19;;;12.50;100.00
32638;BME280;19045;52.268;10.506;2023-05-11T03:10:06;100461.16;;;12.54;100.00
32638;BME280;19045;52.268;10.506;2023-05-11T03:12:33;100466.56;;;12.59;100.00
32638;BME280;19045;52.268;10.506;2023-05-11T03:15:02;100463.59;;;12.60;100.00
32638;BME280;19045;52.268;10.506;2023-05-11T03:17:30;100458.22;;;12.60;100.00
32638;BME280;19045;52.268;10.506;2023-05-11T03:19:57;100458.22;;;12.60;100.00
32638;BME280;19045;52.268;10.506;2023-05-11T03:22:28;100459.53;;;12.63;100.00
32638;BME280;19045;52.268;10.506;2023-05-11T03:24:57;100460.09;;;12.65;100.00
32638;BME280;19045;52.268;10.506;2023-05-11T03:27:25;100464.41;;;12.61;100.00
32638;BME280;19045;52.268;10.506;2023-05-11T03:29:53;100462.25;;;12.63;100.00
32638;BME280;19045;52.268;10.506;2023-05-11T03:32:21;100454.16;;;12.63;100.00
32638;BME280;19045;52.268;10.506;2023-05-11T03:34:48;100457.69;;;12.58;100.00
32638;BME280;19045;52.268;10.506;2023-05-11T03:37:17;100463.31;;;12.57;100.00
32638;BME280;19045;52.268;10.506;2023-05-11T03:39:46;100462.00;;;12.59;100.00
32638;BME280;19045;52.268;10.506;2023-05-11T03:42:19;100458.22;;;12.60;100.00
32638;BME280;19045;52.268;10.506;2023-05-11T03:44:48;100459.31;;;12.59;100.00
32638;BME280;19045;52.268;10.506;2023-05-11T03:47:17;100455.25;;;12.62;100.00
32638;BME280;19045;52.268;10.506;2023-05-11T03:49:46;100468.19;;;12.65;100.00
32638;BME280;19045;52.268;10.506;2023-05-11T03:52:13;100459.81;;;12.66;100.00
32638;BME280;19045;52.268;10.506;2023-05-11T03:54:41;100458.47;;;12.64;100.00
32638;BME280;19045;52.268;10.506;2023-05-11T03:57:08;100458.22;;;12.60;100.00
32638;BME280;19045;52.268;10.506;2023-05-11T03:59:38;100447.97;;;12.67;100.00
32638;BME280;19045;52.268;10.506;2023-05-11T04:02:05;100453.38;;;12.72;100.00
32638;BME280;19045;52.268;10.506;2023-05-11T04:04:31;100447.97;;;12.77;100.00
32638;BME280;19045;52.268;10.506;2023-05-11T04:06:58;100452.28;;;12.83;100.00
32638;BME280;19045;52.268;10.506;2023-05-11T04:09:25;100451.47;;;12.83;100.00
32638;BME280;19045;52.268;10.506;2023-05-11T04:11:52;100451.47;;;12.78;100.00
32638;BME280;19045;52.268;10.506;2023-05-11T04:14:19;100446.59;;;12.80;100.00
32638;BME280;19045;52.268;10.506;2023-05-11T04:16:47;100455.50;;;12.80;100.00
32638;BME280;19045;52.268;10.506;2023-05-11T04:19:13;100446.34;;;12.81;100.00
32638;BME280;19045;52.268;10.506;2023-05-11T04:21:41;100452.53;;;12.87;100.00
32638;BME280;19045;52.268;10.506;2023-05-11T04:24:07;100451.44;;;12.93;100.00
32638;BME280;19045;52.268;10.506;2023-05-11T04:26:34;100446.31;;;12.96;100.00
32638;BME280;19045;52.268;10.506;2023-05-11T04:29:01;100451.97;;;13.00;100.00
32638;BME280;19045;52.268;10.506;2023-05-11T04:31:28;100458.44;;;13.04;100.00
32638;BME280;19045;52.268;10.506;2023-05-11T04:33:56;100461.16;;;13.14;100.00
32638;BME280;19045;52.268;10.506;2023-05-11T04:36:23;100452.75;;;13.26;100.00
32638;BME280;19045;52.268;10.506;2023-05-11T04:38:49;100451.41;;;13.33;100.00
32638;BME280;19045;52.268;10.506;2023-05-11T04:41:17;100451.91;;;13.40;100.00
32638;BME280;19045;52.268;10.506;2023-05-11T04:43:44;100458.34;;;13.50;100.00
32638;BME280;19045;52.268;10.506;2023-05-11T04:46:10;100461.59;;;13.52;100.00
32638;BME280;19045;52.268;10.506;2023-05-11T04:48:37;100457.03;;;13.52;100.00
32638;BME280;19045;52.268;10.506;2023-05-11T04:51:05;100458.34;;;13.55;100.00
32638;BME280;19045;52.268;10.506;2023-05-11T04:53:32;100458.06;;;13.56;100.00
32638;BME280;19045;52.268;10.506;2023-05-11T04:55:58;100460.47;;;13.63;100.00
32638;BME280;19045;52.268;10.506;2023-05-11T04:58:25;100464.50;;;13.70;100.00
32638;BME280;19045;52.268;10.506;2023-05-11T05:00:51;100464.19;;;13.82;100.00
32638;BME280;19045;52.268;10.506;2023-05-11T05:03:18;100467.63;;;13.92;100.00
32638;BME280;19045;52.268;10.506;2023-05-11T05:05:44;100461.91;;;14.04;100.00
32638;BME280;19045;52.268;10.506;2023-05-11T05:08:12;100458.59;;;14.12;100.00
32638;BME280;19045;52.268;10.506;2023-05-11T05:10:39;100466.13;;;14.20;100.00
32638;BME280;19045;52.268;10.506;2023-05-11T05:13:06;100461.25;;;14.22;100.00
32638;BME280;19045;52.268;10.506;2023-05-11T05:15:32;100463.09;;;14.27;100.00
32638;BME280;19045;52.268;10.506;2023-05-11T05:17:59;100470.94;;;14.28;100.00
32638;BME280;19045;52.268;10.506;2023-05-11T05:20:25;100478.00;;;14.24;100.00
32638;BME280;19045;52.268;10.506;2023-05-11T05:22:52;100471.53;;;14.20;100.00
32638;BME280;19045;52.268;10.506;2023-05-11T05:25:20;100472.84;;;14.23;100.00
32638;BME280;19045;52.268;10.506;2023-05-11T05:27:47;100465.00;;;14.26;100.00
32638;BME280;19045;52.268;10.506;2023-05-11T05:30:14;100469.28;;;14.32;100.00
32638;BME280;19045;52.268;10.506;2023-05-11T05:32:40;100466.28;;;14.39;100.00
32638;BME280;19045;52.268;10.506;2023-05-11T05:35:07;100465.53;;;14.33;100.00
32638;BME280;19045;52.268;10.506;2023-05-11T05:37:34;100467.44;;;14.28;100.00
32638;BME280;19045;52.268;10.506;2023-05-11T05:40:01;100477.75;;;14.21;100.00
32638;BME280;19045;52.268;10.506;2023-05-11T05:42:29;100479.13;;;14.18;100.00
32638;BME280;19045;52.268;10.506;2023-05-11T05:44:56;100484.22;;;14.20;100.00
32638;BME280;19045;52.268;10.506;2023-05-11T05:47:23;100481.78;;;14.23;100.00
32638;BME280;19045;52.268;10.506;2023-05-11T05:49:49;100488.59;;;14.11;100.00
32638;BME280;19045;52.268;10.506;2023-05-11T05:52:16;100484.28;;;14.10;100.00
32638;BME280;19045;52.268;10.506;2023-05-11T05:54:42;100487.28;;;14.03;100.00
32638;BME280;19045;52.268;10.506;2023-05-11T05:57:09;100492.44;;;13.99;100.00
32638;BME280;19045;52.268;10.506;2023-05-11T05:59:37;100493.50;;;14.04;100.00
32638;BME280;19045;52.268;10.506;2023-05-11T06:02:04;100495.69;;;13.96;100.00
32638;BME280;19045;52.268;10.506;2023-05-11T06:04:31;100502.47;;;13.94;100.00
32638;BME280;19045;52.268;10.506;2023-05-11T06:07:16;100503.00;;;13.96;100.00
32638;BME280;19045;52.268;10.506;2023-05-11T06:09:48;100501.13;;;13.91;100.00
32638;BME280;19045;52.268;10.506;2023-05-11T06:12:29;100511.94;;;13.86;100.00
32638;BME280;19045;52.268;10.506;2023-05-11T06:14:57;100500.63;;;13.84;100.00
32638;BME280;19045;52.268;10.506;2023-05-11T06:17:24;100502.78;;;13.87;100.00
32638;BME280;19045;52.268;10.506;2023-05-11T06:19:52;100498.13;;;13.93;100.00
32638;BME280;19045;52.268;10.506;2023-05-11T06:22:19;100498.94;;;13.98;100.00
32638;BME280;19045;52.268;10.506;2023-05-11T06:24:45;100501.88;;;14.07;100.00
32638;BME280;19045;52.268;10.506;2023-05-11T06:27:12;100498.03;;;14.18;100.00
32638;BME280;19045;52.268;10.506;2023-05-11T06:29:39;100497.97;;;14.28;100.00
32638;BME280;19045;52.268;10.506;2023-05-11T06:32:07;100496.06;;;14.34;100.00
32638;BME280;19045;52.268;10.506;2023-05-11T06:34:34;100492.50;;;14.43;100.00
32638;BME280;19045;52.268;10.506;2023-05-11T06:37:01;100498.09;;;14.52;100.00
32638;BME280;19045;52.268;10.506;2023-05-11T06:39:27;100502.41;;;14.53;100.00
32638;BME280;19045;52.268;10.506;2023-05-11T06:41:54;100493.56;;;14.47;100.00
32638;BME280;19045;52.268;10.506;2023-05-11T06:44:20;100497.09;;;14.43;100.00
32638;BME280;19045;52.268;10.506;2023-05-11T06:46:47;100494.44;;;14.38;100.00
32638;BME280;19045;52.268;10.506;2023-05-11T06:49:15;100500.38;;;14.30;100.00
32638;BME280;19045;52.268;10.506;2023-05-11T06:51:42;100502.28;;;14.29;100.00
32638;BME280;19045;52.268;10.506;2023-05-11T06:54:08;100495.25;;;14.33;100.00
32638;BME280;19045;52.268;10.506;2023-05-11T06:56:35;100488.75;;;14.29;100.00
32638;BME280;19045;52.268;10.506;2023-05-11T06:59:01;100498.22;;;14.37;100.00
32638;BME280;19045;52.268;10.506;2023-05-11T07:01:28;100492.97;;;14.51;100.00
32638;BME280;19045;52.268;10.506;2023-05-11T07:03:55;100499.69;;;14.58;100.00
32638;BME280;19045;52.268;10.506;2023-05-11T07:06:23;100503.91;;;14.74;100.00
32638;BME280;19045;52.268;10.506;2023-05-11T07:08:50;100498.72;;;14.78;100.00
32638;BME280;19045;52.268;10.506;2023-05-11T07:11:17;100498.66;;;14.88;100.00
32638;BME280;19045;52.268;10.506;2023-05-11T07:13:43;100497.22;;;14.95;100.00
32638;BME280;19045;52.268;10.506;2023-05-11T07:16:10;100497.09;;;15.11;100.00
32638;BME280;19045;52.268;10.506;2023-05-11T07:18:37;100493.72;;;15.24;100.00
32638;BME280;19045;52.268;10.506;2023-05-11T07:21:03;100501.50;;;15.30;100.00
32638;BME280;19045;52.268;10.506;2023-05-11T07:23:32;100499.78;;;15.39;100.00
32638;BME280;19045;52.268;10.506;2023-05-11T07:26:12;100507.81;;;15.49;100.00
32638;BME280;19045;52.268;10.506;2023-05-11T07:28:38;100501.78;;;15.58;100.00
32638;BME280;19045;52.268;10.506;2023-05-11T07:31:05;100509.31;;;15.61;100.00
32638;BME280;19045;52.268;10.506;2023-05-11T07:33:32;100504.16;;;15.64;100.00
32638;BME280;19045;52.268;10.506;2023-05-11T07:35:59;100504.06;;;15.69;100.00
32638;BME280;19045;52.268;10.506;2023-05-11T07:38:25;100507.63;;;15.65;100.00
32638;BME280;19045;52.268;10.506;2023-05-11T07:40:53;100501.78;;;15.58;100.00
32638;BME280;19045;52.268;10.506;2023-05-11T07:43:20;100505.09;;;15.49;100.00
32638;BME280;19045;52.268;10.506;2023-05-11T07:45:46;100506.81;;;15.40;100.00
32638;BME280;19045;52.268;10.506;2023-05-11T07:48:13;100506.94;;;15.25;100.00
32638;BME280;19045;52.268;10.506;2023-05-11T07:50:40;100510.06;;;15.14;100.00
32638;BME280;19045;52.268;10.506;2023-05-11T07:53:07;100507.94;;;15.06;100.00
32638;BME280;19045;52.268;10.506;2023-05-11T07:55:34;100503.75;;;14.94;100.00
32638;BME280;19045;52.268;10.506;2023-05-11T07:58:02;100504.91;;;14.83;100.00
32638;BME280;19045;52.268;10.506;2023-05-11T08:00:28;100510.38;;;14.73;100.00
32638;BME280;19045;52.268;10.506;2023-05-11T08:02:56;100514.72;;;14.74;100.00
32638;BME280;19045;52.268;10.506;2023-05-11T08:05:26;100508.88;;;14.57;100.00
32638;BME280;19045;52.268;10.506;2023-05-11T08:07:52;100514.53;;;14.61;100.00
32638;BME280;19045;52.268;10.506;2023-05-11T08:10:19;100507.81;;;14.58;100.00
32638;BME280;19045;52.268;10.506;2023-05-11T08:12:46;100506.94;;;14.63;100.00
32638;BME280;19045;52.268;10.506;2023-05-11T08:15:14;100503.97;;;14.64;100.00
32638;BME280;19045;52.268;10.506;2023-05-11T08:17:40;100514.47;;;14.71;100.00
32638;BME280;19045;52.268;10.506;2023-05-11T08:20:08;100510.38;;;14.73;100.00
32638;BME280;19045;52.268;10.506;2023-05-11T08:22:47;100506.13;;;14.67;100.00
32638;BME280;19045;52.268;10.506;2023-05-11T08:25:13;100501.78;;;14.66;100.00
32638;BME280;19045;52.268;10.506;2023-05-11T08:27:40;100514.81;;;14.59;100.00
32638;BME280;19045;52.268;10.506;2023-05-11T08:30:07;100510.78;;;14.57;100.00
32638;BME280;19045;52.268;10.506;2023-05-11T08:32:35;100521.91;;;14.50;100.00
32638;BME280;19045;52.268;10.506;2023-05-11T08:35:04;100514.06;;;14.54;100.00
32638;BME280;19045;52.268;10.506;2023-05-11T08:37:31;100516.78;;;14.48;100.00
32638;BME280;19045;52.268;10.506;2023-05-11T08:39:58;100518.97;;;14.46;100.00
32638;BME280;19045;52.268;10.506;2023-05-11T08:42:26;100512.72;;;14.51;100.00
32638;BME280;19045;52.268;10.506;2023-05-11T08:44:54;100515.44;;;14.51;100.00
32638;BME280;19045;52.268;10.506;2023-05-11T08:47:22;100521.66;;;14.52;100.00
32638;BME280;19045;52.268;10.506;2023-05-11T08:49:51;100518.44;;;14.44;100.00
32638;BME280;19045;52.268;10.506;2023-05-11T08:52:18;100519.28;;;14.40;100.00
32638;BME280;19045;52.268;10.506;2023-05-11T08:54:45;100523.88;;;14.39;100.00
32638;BME280;19045;52.268;10.506;2023-05-11T08:57:12;100522.16;;;14.54;100.00
32638;BME280;19045;52.268;10.506;2023-05-11T08:59:40;100513.69;;;14.65;100.00
32638;BME280;19045;52.268;10.506;2023-05-11T09:02:09;100520.84;;;14.85;100.00
32638;BME280;19045;52.268;10.506;2023-05-11T09:04:39;100522.25;;;15.11;100.00
32638;BME280;19045;52.268;10.506;2023-05-11T09:07:07;100518.47;;;15.36;100.00
32638;BME280;19045;52.268;10.506;2023-05-11T09:09:34;100522.56;;;15.62;100.00
32638;BME280;19045;52.268;10.506;2023-05-11T09:12:02;100517.50;;;15.79;100.00
32638;BME280;19045;52.268;10.506;2023-05-11T09:14:29;100511.44;;;15.87;100.00
32638;BME280;19045;52.268;10.506;2023-05-11T09:16:55;100518.28;;;16.03;100.00
32638;BME280;19045;52.268;10.506;2023-05-11T09:19:23;100516.53;;;16.13;100.00
32638;BME280;19045;52.268;10.506;2023-05-11T09:21:51;100516.19;;;16.19;100.00
32638;BME280;19045;52.268;10.506;2023-05-11T09:24:20;100520.16;;;16.27;100.00
32638;BME280;19045;52.268;10.506;2023-05-11T09:26:47;100518.16;;;16.32;100.00
32638;BME280;19045;52.268;10.506;2023-05-11T09:29:18;100516.69;;;16.21;100.00
32638;BME280;19045;52.268;10.506;2023-05-11T09:31:46;100513.09;;;16.07;100.00
32638;BME280;19045;52.268;10.506;2023-05-11T09:34:14;100510.28;;;15.93;100.00
32638;BME280;19045;52.268;10.506;2023-05-11T09:36:42;100512.78;;;15.90;100.00
32638;BME280;19045;52.268;10.506;2023-05-11T09:39:09;100518.91;;;15.95;100.00
32638;BME280;19045;52.268;10.506;2023-05-11T09:41:38;100506.56;;;16.08;100.00
32638;BME280;19045;52.268;10.506;2023-05-11T09:44:08;100516.09;;;16.24;100.00
32638;BME280;19045;52.268;10.506;2023-05-11T09:46:36;100518.16;;;16.32;100.00
32638;BME280;19045;52.268;10.506;2023-05-11T09:49:06;100516.41;;;16.41;100.00
32638;BME280;19045;52.268;10.506;2023-05-11T09:51:34;100514.31;;;16.57;100.00
32638;BME280;19045;52.268;10.506;2023-05-11T09:54:14;100516.47;;;16.74;100.00
32638;BME280;19045;52.268;10.506;2023-05-11T09:56:44;100510.38;;;16.82;100.00
32638;BME280;19045;52.268;10.506;2023-05-11T09:59:14;100510.84;;;16.70;100.00
32638;BME280;19045;52.268;10.506;2023-05-11T10:01:40;100513.84;;;16.50;100.00
32638;BME280;19045;52.268;10.506;2023-05-11T10:04:07;100513.78;;;16.55;100.00
32638;BME280;19045;52.268;10.506;2023-05-11T10:06:47;100504.41;;;16.66;100.00
32638;BME280;19045;52.268;10.506;2023-05-11T10:09:15;100504.03;;;16.73;100.00
32638;BME280;19045;52.268;10.506;2023-05-11T10:11:45;100497.84;;;16.86;100.00
32638;BME280;19045;52.268;10.506;2023-05-11T10:14:12;100505.28;;;16.94;100.00
32638;BME280;19045;52.268;10.506;2023-05-11T10:16:41;100502.19;;;17.00;100.00
32638;BME280;19045;52.268;10.506;2023-05-11T10:19:08;100505.53;;;17.11;100.00
32638;BME280;19045;52.268;10.506;2023-05-11T10:21:36;100497.84;;;17.32;100.00
32638;BME280;19045;52.268;10.506;2023-05-11T10:24:03;100495.25;;;17.54;99.36
32638;BME280;19045;52.268;10.506;2023-05-11T10:26:31;100500.72;;;17.81;98.47
32638;BME280;19045;52.268;10.506;2023-05-11T10:28:59;100486.91;;;18.05;96.95
32638;BME280;19045;52.268;10.506;2023-05-11T10:31:27;100481.53;;;18.14;95.13
32638;BME280;19045;52.268;10.506;2023-05-11T10:33:54;100490.41;;;18.19;93.77
32638;BME280;19045;52.268;10.506;2023-05-11T10:36:23;100479.00;;;18.17;92.61
32638;BME280;19045;52.268;10.506;2023-05-11T10:38:50;100484.38;;;18.08;93.43
32638;BME280;19045;52.268;10.506;2023-05-11T10:41:27;100481.19;;;17.93;95.06
32638;BME280;19045;52.268;10.506;2023-05-11T10:44:14;100485.91;;;17.74;96.12
32638;BME280;19045;52.268;10.506;2023-05-11T10:46:58;100480.47;;;17.46;97.77
32638;BME280;19045;52.268;10.506;2023-05-11T10:49:58;100490.16;;;17.20;98.24
32638;BME280;19045;52.268;10.506;2023-05-11T10:55:33;100489.91;;;16.89;100.00
32638;BME280;19045;52.268;10.506;2023-05-11T10:58:06;100488.50;;;16.92;100.00
32638;BME280;19045;52.268;10.506;2023-05-11T11:03:34;100484.72;;;16.74;100.00
32638;BME280;19045;52.268;10.506;2023-05-11T11:06:02;100484.44;;;16.76;100.00
32638;BME280;19045;52.268;10.506;2023-05-11T11:08:55;100482.38;;;16.86;100.00
32638;BME280;19045;52.268;10.506;2023-05-11T11:11:33;100481.56;;;16.86;100.00
32638;BME280;19045;52.268;10.506;2023-05-11T11:14:02;100476.38;;;16.71;100.00
32638;BME280;19045;52.268;10.506;2023-05-11T11:16:30;100483.13;;;16.54;100.00
32638;BME280;19045;52.268;10.506;2023-05-11T11:19:35;100478.00;;;16.34;100.00
32638;BME280;19045;52.268;10.506;2023-05-11T11:22:03;100479.31;;;16.18;100.00
32638;BME280;19045;52.268;10.506;2023-05-11T11:24:43;100480.50;;;16.12;100.00
32638;BME280;19045;52.268;10.506;2023-05-11T11:27:11;100468.47;;;15.99;100.00
32638;BME280;19045;52.268;10.506;2023-05-11T11:29:38;100478.59;;;15.94;100.00
32638;BME280;19045;52.268;10.506;2023-05-11T11:32:24;100475.19;;;15.83;100.00
32638;BME280;19045;52.268;10.506;2023-05-11T11:34:53;100479.41;;;15.71;100.00
32638;BME280;19045;52.268;10.506;2023-05-11T11:37:20;100475.94;;;15.65;100.00
32638;BME280;19045;52.268;10.506;2023-05-11T11:39:50;100476.19;;;15.69;100.00
32638;BME280;19045;52.268;10.506;2023-05-11T11:42:35;100475.47;;;15.82;100.00
32638;BME280;19045;52.268;10.506;2023-05-11T11:45:29;100473.53;;;16.06;100.00
32638;BME280;19045;52.268;10.506;2023-05-11T11:51:04;100469.00;;;16.20;100.00
32638;BME280;19045;52.268;10.506;2023-05-11T11:54:04;100466.06;;;16.17;100.00
32638;BME280;19045;52.268;10.506;2023-05-11T11:56:44;100471.84;;;16.10;100.00
32638;BME280;19045;52.268;10.506;2023-05-11T11:59:11;100471.41;;;16.03;100.00
32638;BME280;19045;52.268;10.506;2023-05-11T12:01:40;100478.97;;;16.06;100.00
32638;BME280;19045;52.268;10.506;2023-05-11T12:04:32;100481.00;;;16.14;100.00
32638;BME280;19045;52.268;10.506;2023-05-11T12:07:07;100479.63;;;16.17;100.00
32638;BME280;19045;52.268;10.506;2023-05-11T12:09:35;100476.38;;;16.15;100.00
32638;BME280;19045;52.268;10.506;2023-05-11T12:12:03;100481.16;;;16.04;100.00
32638;BME280;19045;52.268;10.506;2023-05-11T12:14:31;100476.66;;;15.94;100.00
32638;BME280;19045;52.268;10.506;2023-05-11T12:17:03;100473.09;;;15.99;100.00
32638;BME280;19045;52.268;10.506;2023-05-11T12:19:30;100483.41;;;15.97;100.00
32638;BME280;19045;52.268;10.506;2023-05-11T12:21:56;100477.47;;;15.95;100.00
32638;BME280;19045;52.268;10.506;2023-05-11T12:24:25;100470.31;;;16.04;100.00
32638;BME280;19045;52.268;10.506;2023-05-11T12:26:54;100476.03;;;16.21;100.00
32638;BME280;19045;52.268;10.506;2023-05-11T12:29:22;100474.84;;;16.46;100.00
32638;BME280;19045;52.268;10.506;2023-05-11T12:31:49;100470.94;;;16.57;100.00
32638;BME280;19045;52.268;10.506;2023-05-11T12:34:16;100467.94;;;16.72;100.00
32638;BME280;19045;52.268;10.506;2023-05-11T12:36:44;100474.28;;;17.00;100.00
32638;BME280;19045;52.268;10.506;2023-05-11T12:39:16;100470.47;;;17.28;100.00
32638;BME280;19045;52.268;10.506;2023-05-11T12:41:46;100466.28;;;17.49;100.00
32638;BME280;19045;52.268;10.506;2023-05-11T12:44:13;100469.78;;;17.50;100.00
32638;BME280;19045;52.268;10.506;2023-05-11T12:46:40;100470.50;;;17.42;100.00
32638;BME280;19045;52.268;10.506;2023-05-11T12:49:08;100465.97;;;17.37;100.00